sensor_id;sensor_type;location;lat;lon;timestamp;temperature;humidity
24614;DHT22;12760;46.296;25.290;2023-04-26T00:00:42;12.20;99.90
24614;DHT22;12760;46.296;25.290;2023-04-26T00:03:08;12.20;99.90
24614;DHT22;12760;46.296;25.290;2023-04-26T00:05:34;12.10;99.90
24614;DHT22;12760;46.296;25.290;2023-04-26T00:08:00;12.10;99.90
24614;DHT22;12760;46.296;25.290;2023-04-26T00:10:26;12.10;99.90
24614;DHT22;12760;46.296;25.290;2023-04-26T00:12:51;12.20;99.90
24614;DHT22;12760;46.296;25.290;2023-04-26T00:15:17;12.20;99.90
24614;DHT22;12760;46.296;25.290;2023-04-26T00:17:43;12.20;99.90
24614;DHT22;12760;46.296;25.290;2023-04-26T00:20:09;12.20;99.90
24614;DHT22;12760;46.296;25.290;2023-04-26T00:22:37;12.10;99.90
24614;DHT22;12760;46.296;25.290;2023-04-26T00:25:03;12.10;99.90
24614;DHT22;12760;46.296;25.290;2023-04-26T00:27:29;12.00;99.90
24614;DHT22;12760;46.296;25.290;2023-04-26T00:29:54;12.00;99.90
24614;DHT22;12760;46.296;25.290;2023-04-26T00:32:20;12.10;99.90
24614;DHT22;12760;46.296;25.290;2023-04-26T00:34:46;12.10;99.90
24614;DHT22;12760;46.296;25.290;2023-04-26T00:37:12;12.00;99.90
24614;DHT22;12760;46.296;25.290;2023-04-26T00:39:37;12.00;99.90
24614;DHT22;12760;46.296;25.290;2023-04-26T00:42:03;12.20;99.90
24614;DHT22;12760;46.296;25.290;2023-04-26T00:44:29;12.20;99.90
24614;DHT22;12760;46.296;25.290;2023-04-26T00:46:55;12.20;99.90
24614;DHT22;12760;46.296;25.290;2023-04-26T00:49:24;12.20;99.90
24614;DHT22;12760;46.296;25.290;2023-04-26T00:51:52;12.20;99.90
24614;DHT22;12760;46.296;25.290;2023-04-26T00:54:19;12.30;99.90
24614;DHT22;12760;46.296;25.290;2023-04-26T00:56:45;12.40;99.90
24614;DHT22;12760;46.296;25.290;2023-04-26T00:59:12;12.40;99.90
24614;DHT22;12760;46.296;25.290;2023-04-26T01:01:37;12.30;99.90
24614;DHT22;12760;46.296;25.290;2023-04-26T01:04:04;12.20;99.90
24614;DHT22;12760;46.296;25.290;2023-04-26T01:06:33;12.30;99.90
24614;DHT22;12760;46.296;25.290;2023-04-26T01:09:01;12.40;99.90
24614;DHT22;12760;46.296;25.290;2023-04-26T01:11:39;12.50;99.90
24614;DHT22;12760;46.296;25.290;2023-04-26T01:14:06;12.50;99.90
24614;DHT22;12760;46.296;25.290;2023-04-26T01:16:33;12.50;99.90
24614;DHT22;12760;46.296;25.290;2023-04-26T01:19:19;12.50;99.90
24614;DHT22;12760;46.296;25.290;2023-04-26T01:21:45;12.50;99.90
24614;DHT22;12760;46.296;25.290;2023-04-26T01:24:12;12.60;99.90
24614;DHT22;12760;46.296;25.290;2023-04-26T01:26:38;12.50;99.90
24614;DHT22;12760;46.296;25.290;2023-04-26T01:29:20;12.40;99.90
24614;DHT22;12760;46.296;25.290;2023-04-26T01:31:46;12.50;99.90
24614;DHT22;12760;46.296;25.290;2023-04-26T01:34:13;12.40;99.90
24614;DHT22;12760;46.296;25.290;2023-04-26T01:36:39;12.50;99.90
24614;DHT22;12760;46.296;25.290;2023-04-26T01:39:05;12.50;99.90
24614;DHT22;12760;46.296;25.290;2023-04-26T01:41:32;12.60;99.90
24614;DHT22;12760;46.296;25.290;2023-04-26T01:43:58;12.60;99.90
24614;DHT22;12760;46.296;25.290;2023-04-26T01:46:24;12.60;99.90
24614;DHT22;12760;46.296;25.290;2023-04-26T01:48:50;12.60;99.90
24614;DHT22;12760;46.296;25.290;2023-04-26T01:51:16;12.60;99.90
24614;DHT22;12760;46.296;25.290;2023-04-26T01:53:41;12.50;99.90
24614;DHT22;12760;46.296;25.290;2023-04-26T01:56:07;12.50;99.90
24614;DHT22;12760;46.296;25.290;2023-04-26T01:58:33;12.50;99.90
24614;DHT22;12760;46.296;25.290;2023-04-26T02:01:07;12.50;99.90
24614;DHT22;12760;46.296;25.290;2023-04-26T02:03:33;12.40;99.90
24614;DHT22;12760;46.296;25.290;2023-04-26T02:05:58;12.30;99.90
24614;DHT22;12760;46.296;25.290;2023-04-26T02:08:24;12.30;99.90
24614;DHT22;12760;46.296;25.290;2023-04-26T02:10:50;12.30;99.90
24614;DHT22;12760;46.296;25.290;2023-04-26T02:13:15;12.20;99.90
24614;DHT22;12760;46.296;25.290;2023-04-26T02:15:45;12.20;99.90
24614;DHT22;12760;46.296;25.290;2023-04-26T02:18:11;12.20;99.90
24614;DHT22;12760;46.296;25.290;2023-04-26T02:20:40;12.30;99.90
24614;DHT22;12760;46.296;25.290;2023-04-26T02:23:08;12.20;99.90
24614;DHT22;12760;46.296;25.290;2023-04-26T02:25:34;12.20;99.90
24614;DHT22;12760;46.296;25.290;2023-04-26T02:28:00;12.20;99.90
24614;DHT22;12760;46.296;25.290;2023-04-26T02:30:26;12.30;99.90
24614;DHT22;12760;46.296;25.290;2023-04-26T02:32:55;12.30;99.90
24614;DHT22;12760;46.296;25.290;2023-04-26T02:35:22;12.30;99.90
24614;DHT22;12760;46.296;25.290;2023-04-26T02:37:47;12.30;99.90
24614;DHT22;12760;46.296;25.290;2023-04-26T02:40:19;12.40;99.90
24614;DHT22;12760;46.296;25.290;2023-04-26T02:42:45;12.30;99.90
24614;DHT22;12760;46.296;25.290;2023-04-26T02:45:11;12.30;99.90
24614;DHT22;12760;46.296;25.290;2023-04-26T02:47:37;12.20;99.90
24614;DHT22;12760;46.296;25.290;2023-04-26T02:50:07;12.20;99.90
24614;DHT22;12760;46.296;25.290;2023-04-26T02:52:36;12.30;99.90
24614;DHT22;12760;46.296;25.290;2023-04-26T02:55:02;12.30;99.90
24614;DHT22;12760;46.296;25.290;2023-04-26T02:57:29;12.30;99.90
24614;DHT22;12760;46.296;25.290;2023-04-26T02:59:56;12.30;99.90
24614;DHT22;12760;46.296;25.290;2023-04-26T03:02:22;12.30;99.90
24614;DHT22;12760;46.296;25.290;2023-04-26T03:04:48;12.30;99.90
24614;DHT22;12760;46.296;25.290;2023-04-26T03:07:13;12.20;99.90
24614;DHT22;12760;46.296;25.290;2023-04-26T03:09:39;12.20;99.90
24614;DHT22;12760;46.296;25.290;2023-04-26T03:12:05;12.20;99.90
24614;DHT22;12760;46.296;25.290;2023-04-26T03:14:31;12.20;99.90
24614;DHT22;12760;46.296;25.290;2023-04-26T03:16:58;12.20;99.90
24614;DHT22;12760;46.296;25.290;2023-04-26T03:19:24;12.20;99.90
24614;DHT22;12760;46.296;25.290;2023-04-26T03:21:50;12.20;99.90
24614;DHT22;12760;46.296;25.290;2023-04-26T03:24:16;12.20;99.90
24614;DHT22;12760;46.296;25.290;2023-04-26T03:26:42;12.20;99.90
24614;DHT22;12760;46.296;25.290;2023-04-26T03:29:08;12.20;99.90
24614;DHT22;12760;46.296;25.290;2023-04-26T03:31:33;12.20;99.90
24614;DHT22;12760;46.296;25.290;2023-04-26T03:33:59;12.20;99.90
24614;DHT22;12760;46.296;25.290;2023-04-26T03:36:25;12.20;99.90
24614;DHT22;12760;46.296;25.290;2023-04-26T03:38:53;12.10;99.90
24614;DHT22;12760;46.296;25.290;2023-04-26T03:41:19;12.10;99.90
24614;DHT22;12760;46.296;25.290;2023-04-26T03:43:45;11.90;99.90
24614;DHT22;12760;46.296;25.290;2023-04-26T03:46:11;11.90;99.90
24614;DHT22;12760;46.296;25.290;2023-04-26T03:48:37;11.80;99.90
24614;DHT22;12760;46.296;25.290;2023-04-26T03:51:02;11.80;99.90
24614;DHT22;12760;46.296;25.290;2023-04-26T03:53:28;11.80;99.90
24614;DHT22;12760;46.296;25.290;2023-04-26T03:55:54;11.80;99.90
24614;DHT22;12760;46.296;25.290;2023-04-26T03:58:20;11.80;99.90
24614;DHT22;12760;46.296;25.290;2023-04-26T04:00:46;11.80;99.90
24614;DHT22;12760;46.296;25.290;2023-04-26T04:03:12;11.80;99.90
24614;DHT22;12760;46.296;25.290;2023-04-26T04:05:37;11.70;99.90
24614;DHT22;12760;46.296;25.290;2023-04-26T04:08:03;11.80;99.90
24614;DHT22;12760;46.296;25.290;2023-04-26T04:10:29;11.80;99.90
24614;DHT22;12760;46.296;25.290;2023-04-26T04:12:55;11.70;99.90
24614;DHT22;12760;46.296;25.290;2023-04-26T04:15:20;11.60;99.90
24614;DHT22;12760;46.296;25.290;2023-04-26T04:17:46;11.40;99.90
24614;DHT22;12760;46.296;25.290;2023-04-26T04:20:12;11.40;99.90
24614;DHT22;12760;46.296;25.290;2023-04-26T04:22:38;11.50;99.90
24614;DHT22;12760;46.296;25.290;2023-04-26T04:25:06;11.40;99.90
24614;DHT22;12760;46.296;25.290;2023-04-26T04:27:32;11.50;99.90
24614;DHT22;12760;46.296;25.290;2023-04-26T04:29:57;11.40;99.90
24614;DHT22;12760;46.296;25.290;2023-04-26T04:32:23;11.30;99.90
24614;DHT22;12760;46.296;25.290;2023-04-26T04:34:49;11.30;99.90
24614;DHT22;12760;46.296;25.290;2023-04-26T04:37:18;11.40;99.90
24614;DHT22;12760;46.296;25.290;2023-04-26T04:39:44;11.40;99.90
24614;DHT22;12760;46.296;25.290;2023-04-26T04:42:09;11.40;99.90
24614;DHT22;12760;46.296;25.290;2023-04-26T04:44:37;11.40;99.90
24614;DHT22;12760;46.296;25.290;2023-04-26T04:47:02;11.30;99.90
24614;DHT22;12760;46.296;25.290;2023-04-26T04:49:28;11.40;99.90
24614;DHT22;12760;46.296;25.290;2023-04-26T04:51:55;11.40;99.90
24614;DHT22;12760;46.296;25.290;2023-04-26T04:54:22;11.50;99.90
24614;DHT22;12760;46.296;25.290;2023-04-26T04:56:48;11.60;99.90
24614;DHT22;12760;46.296;25.290;2023-04-26T04:59:13;11.50;99.90
24614;DHT22;12760;46.296;25.290;2023-04-26T05:01:39;11.50;99.90
24614;DHT22;12760;46.296;25.290;2023-04-26T05:04:05;11.50;99.90
24614;DHT22;12760;46.296;25.290;2023-04-26T05:06:31;11.40;99.90
24614;DHT22;12760;46.296;25.290;2023-04-26T05:08:57;11.30;99.90
24614;DHT22;12760;46.296;25.290;2023-04-26T05:11:23;11.30;99.90
24614;DHT22;12760;46.296;25.290;2023-04-26T05:13:49;11.20;99.90
24614;DHT22;12760;46.296;25.290;2023-04-26T05:16:15;11.20;99.90
24614;DHT22;12760;46.296;25.290;2023-04-26T05:18:42;11.20;99.90
24614;DHT22;12760;46.296;25.290;2023-04-26T05:21:07;11.20;99.90
24614;DHT22;12760;46.296;25.290;2023-04-26T05:23:33;11.20;99.90
24614;DHT22;12760;46.296;25.290;2023-04-26T05:26:03;11.20;99.90
24614;DHT22;12760;46.296;25.290;2023-04-26T05:28:32;11.20;99.90
24614;DHT22;12760;46.296;25.290;2023-04-26T05:30:58;11.00;99.90
24614;DHT22;12760;46.296;25.290;2023-04-26T05:33:25;10.90;99.90
24614;DHT22;12760;46.296;25.290;2023-04-26T05:35:52;10.90;99.90
24614;DHT22;12760;46.296;25.290;2023-04-26T05:38:19;10.90;99.90
24614;DHT22;12760;46.296;25.290;2023-04-26T05:40:44;10.80;99.90
24614;DHT22;12760;46.296;25.290;2023-04-26T05:43:12;10.70;99.90
24614;DHT22;12760;46.296;25.290;2023-04-26T05:45:38;10.70;99.90
24614;DHT22;12760;46.296;25.290;2023-04-26T05:48:04;10.70;99.90
24614;DHT22;12760;46.296;25.290;2023-04-26T05:50:30;10.70;99.90
24614;DHT22;12760;46.296;25.290;2023-04-26T05:52:56;10.70;99.90
24614;DHT22;12760;46.296;25.290;2023-04-26T05:55:22;10.70;99.90
24614;DHT22;12760;46.296;25.290;2023-04-26T05:57:48;10.70;99.90
24614;DHT22;12760;46.296;25.290;2023-04-26T06:00:14;10.80;99.90
24614;DHT22;12760;46.296;25.290;2023-04-26T06:02:40;10.70;99.90
24614;DHT22;12760;46.296;25.290;2023-04-26T06:05:06;10.80;99.90
24614;DHT22;12760;46.296;25.290;2023-04-26T06:07:33;10.70;99.90
24614;DHT22;12760;46.296;25.290;2023-04-26T06:10:02;10.70;99.90
24614;DHT22;12760;46.296;25.290;2023-04-26T06:12:28;10.80;99.90
24614;DHT22;12760;46.296;25.290;2023-04-26T06:14:53;10.90;99.90
24614;DHT22;12760;46.296;25.290;2023-04-26T06:17:19;10.60;99.90
24614;DHT22;12760;46.296;25.290;2023-04-26T06:19:45;10.60;99.90
24614;DHT22;12760;46.296;25.290;2023-04-26T06:22:11;10.40;99.90
24614;DHT22;12760;46.296;25.290;2023-04-26T06:24:37;10.50;99.90
24614;DHT22;12760;46.296;25.290;2023-04-26T06:27:02;10.40;99.90
24614;DHT22;12760;46.296;25.290;2023-04-26T06:29:31;10.50;99.90
24614;DHT22;12760;46.296;25.290;2023-04-26T06:31:57;10.70;99.90
24614;DHT22;12760;46.296;25.290;2023-04-26T06:34:23;10.70;99.90
24614;DHT22;12760;46.296;25.290;2023-04-26T06:36:48;10.80;99.90
24614;DHT22;12760;46.296;25.290;2023-04-26T06:39:14;10.90;99.90
24614;DHT22;12760;46.296;25.290;2023-04-26T06:41:41;10.90;99.90
24614;DHT22;12760;46.296;25.290;2023-04-26T06:44:07;10.90;99.90
24614;DHT22;12760;46.296;25.290;2023-04-26T06:46:33;10.90;99.90
24614;DHT22;12760;46.296;25.290;2023-04-26T06:49:00;10.90;99.90
24614;DHT22;12760;46.296;25.290;2023-04-26T06:51:26;11.00;99.90
24614;DHT22;12760;46.296;25.290;2023-04-26T06:53:53;10.90;99.90
24614;DHT22;12760;46.296;25.290;2023-04-26T06:56:18;10.80;99.90
24614;DHT22;12760;46.296;25.290;2023-04-26T06:59:01;10.80;99.90
24614;DHT22;12760;46.296;25.290;2023-04-26T07:01:27;10.90;99.90
24614;DHT22;12760;46.296;25.290;2023-04-26T07:03:54;11.00;99.90
24614;DHT22;12760;46.296;25.290;2023-04-26T07:06:22;11.10;99.90
24614;DHT22;12760;46.296;25.290;2023-04-26T07:08:47;11.10;99.90
24614;DHT22;12760;46.296;25.290;2023-04-26T07:11:13;11.00;99.90
24614;DHT22;12760;46.296;25.290;2023-04-26T07:13:39;11.00;99.90
24614;DHT22;12760;46.296;25.290;2023-04-26T07:16:05;11.10;99.90
24614;DHT22;12760;46.296;25.290;2023-04-26T07:18:31;11.10;99.90
24614;DHT22;12760;46.296;25.290;2023-04-26T07:20:56;11.10;99.90
24614;DHT22;12760;46.296;25.290;2023-04-26T07:23:22;11.10;99.90
24614;DHT22;12760;46.296;25.290;2023-04-26T07:25:48;11.10;99.90
24614;DHT22;12760;46.296;25.290;2023-04-26T07:28:13;11.10;99.90
24614;DHT22;12760;46.296;25.290;2023-04-26T07:30:40;11.10;99.90
24614;DHT22;12760;46.296;25.290;2023-04-26T07:33:05;11.00;99.90
24614;DHT22;12760;46.296;25.290;2023-04-26T07:35:31;11.00;99.90
24614;DHT22;12760;46.296;25.290;2023-04-26T07:37:59;11.00;99.90
24614;DHT22;12760;46.296;25.290;2023-04-26T07:40:25;11.10;99.90
24614;DHT22;12760;46.296;25.290;2023-04-26T07:42:53;11.00;99.90
24614;DHT22;12760;46.296;25.290;2023-04-26T07:45:19;10.70;99.90
24614;DHT22;12760;46.296;25.290;2023-04-26T07:47:45;10.80;99.90
24614;DHT22;12760;46.296;25.290;2023-04-26T07:50:11;10.90;99.90
24614;DHT22;12760;46.296;25.290;2023-04-26T07:52:37;10.90;99.90
24614;DHT22;12760;46.296;25.290;2023-04-26T07:55:03;10.90;99.90
24614;DHT22;12760;46.296;25.290;2023-04-26T07:57:29;11.00;99.90
24614;DHT22;12760;46.296;25.290;2023-04-26T07:59:55;11.00;99.90
24614;DHT22;12760;46.296;25.290;2023-04-26T08:02:21;11.10;99.90
24614;DHT22;12760;46.296;25.290;2023-04-26T08:04:48;11.20;99.90
24614;DHT22;12760;46.296;25.290;2023-04-26T08:07:14;11.10;99.90
24614;DHT22;12760;46.296;25.290;2023-04-26T08:09:40;11.20;99.90
24614;DHT22;12760;46.296;25.290;2023-04-26T08:12:06;11.20;99.90
24614;DHT22;12760;46.296;25.290;2023-04-26T08:14:34;11.30;99.90
24614;DHT22;12760;46.296;25.290;2023-04-26T08:17:00;11.30;99.90
24614;DHT22;12760;46.296;25.290;2023-04-26T08:19:26;11.40;99.90
24614;DHT22;12760;46.296;25.290;2023-04-26T08:21:55;11.30;99.90
24614;DHT22;12760;46.296;25.290;2023-04-26T08:24:21;11.30;99.90
24614;DHT22;12760;46.296;25.290;2023-04-26T08:26:47;11.30;99.90
24614;DHT22;12760;46.296;25.290;2023-04-26T08:29:12;11.20;99.90
24614;DHT22;12760;46.296;25.290;2023-04-26T08:31:39;11.20;99.90
24614;DHT22;12760;46.296;25.290;2023-04-26T08:34:06;11.20;99.90
24614;DHT22;12760;46.296;25.290;2023-04-26T08:36:36;11.20;99.90
24614;DHT22;12760;46.296;25.290;2023-04-26T08:39:02;11.30;99.90
24614;DHT22;12760;46.296;25.290;2023-04-26T08:41:30;11.20;99.90
24614;DHT22;12760;46.296;25.290;2023-04-26T08:44:00;11.20;99.90
24614;DHT22;12760;46.296;25.290;2023-04-26T08:46:32;11.20;99.90
24614;DHT22;12760;46.296;25.290;2023-04-26T08:49:09;11.20;99.90
24614;DHT22;12760;46.296;25.290;2023-04-26T08:51:38;11.10;99.90
24614;DHT22;12760;46.296;25.290;2023-04-26T08:54:04;11.10;99.90
24614;DHT22;12760;46.296;25.290;2023-04-26T08:56:31;11.10;99.90
24614;DHT22;12760;46.296;25.290;2023-04-26T08:58:59;11.20;99.90
24614;DHT22;12760;46.296;25.290;2023-04-26T09:01:27;11.20;99.90
24614;DHT22;12760;46.296;25.290;2023-04-26T09:03:54;11.20;99.90
24614;DHT22;12760;46.296;25.290;2023-04-26T09:06:22;11.20;99.90
24614;DHT22;12760;46.296;25.290;2023-04-26T09:08:48;11.30;99.90
24614;DHT22;12760;46.296;25.290;2023-04-26T09:11:15;11.30;99.90
24614;DHT22;12760;46.296;25.290;2023-04-26T09:13:41;11.30;99.90
24614;DHT22;12760;46.296;25.290;2023-04-26T09:16:07;11.30;99.90
24614;DHT22;12760;46.296;25.290;2023-04-26T09:18:33;11.40;99.90
24614;DHT22;12760;46.296;25.290;2023-04-26T09:21:06;11.30;99.90
24614;DHT22;12760;46.296;25.290;2023-04-26T09:23:33;11.30;99.90
24614;DHT22;12760;46.296;25.290;2023-04-26T09:26:20;11.30;99.90
24614;DHT22;12760;46.296;25.290;2023-04-26T09:28:46;11.30;99.90
24614;DHT22;12760;46.296;25.290;2023-04-26T09:31:38;11.20;99.90
24614;DHT22;12760;46.296;25.290;2023-04-26T09:34:04;11.30;99.90
24614;DHT22;12760;46.296;25.290;2023-04-26T09:36:30;11.40;99.90
24614;DHT22;12760;46.296;25.290;2023-04-26T09:38:56;11.30;99.90
24614;DHT22;12760;46.296;25.290;2023-04-26T09:41:22;11.40;99.90
24614;DHT22;12760;46.296;25.290;2023-04-26T09:43:51;11.50;99.90
24614;DHT22;12760;46.296;25.290;2023-04-26T09:46:23;11.50;99.90
24614;DHT22;12760;46.296;25.290;2023-04-26T09:49:00;11.40;99.90
24614;DHT22;12760;46.296;25.290;2023-04-26T09:51:26;11.30;99.90
24614;DHT22;12760;46.296;25.290;2023-04-26T09:53:53;11.30;99.90
24614;DHT22;12760;46.296;25.290;2023-04-26T09:56:19;11.30;99.90
24614;DHT22;12760;46.296;25.290;2023-04-26T10:01:16;11.40;99.90
24614;DHT22;12760;46.296;25.290;2023-04-26T10:03:43;11.30;99.90
24614;DHT22;12760;46.296;25.290;2023-04-26T10:06:09;11.30;99.90
24614;DHT22;12760;46.296;25.290;2023-04-26T10:08:35;11.30;99.90
24614;DHT22;12760;46.296;25.290;2023-04-26T10:11:03;11.20;99.90
24614;DHT22;12760;46.296;25.290;2023-04-26T10:13:33;11.30;99.90
24614;DHT22;12760;46.296;25.290;2023-04-26T10:15:59;11.40;99.90
24614;DHT22;12760;46.296;25.290;2023-04-26T10:18:31;11.50;99.90
24614;DHT22;12760;46.296;25.290;2023-04-26T10:21:06;11.50;99.90
24614;DHT22;12760;46.296;25.290;2023-04-26T10:23:35;11.60;99.90
24614;DHT22;12760;46.296;25.290;2023-04-26T10:26:01;11.60;99.90
24614;DHT22;12760;46.296;25.290;2023-04-26T10:31:08;11.50;99.90
24614;DHT22;12760;46.296;25.290;2023-04-26T10:33:35;11.40;99.90
24614;DHT22;12760;46.296;25.290;2023-04-26T10:38:28;11.50;99.90
24614;DHT22;12760;46.296;25.290;2023-04-26T10:40:54;11.60;99.90
24614;DHT22;12760;46.296;25.290;2023-04-26T10:43:27;11.60;99.90
24614;DHT22;12760;46.296;25.290;2023-04-26T10:45:53;11.70;99.90
24614;DHT22;12760;46.296;25.290;2023-04-26T11:01:34;11.70;99.90
24614;DHT22;12760;46.296;25.290;2023-04-26T11:06:49;11.70;99.90
24614;DHT22;12760;46.296;25.290;2023-04-26T11:09:35;11.90;99.90
24614;DHT22;12760;46.296;25.290;2023-04-26T11:12:06;11.90;99.90
24614;DHT22;12760;46.296;25.290;2023-04-26T11:14:35;11.90;99.90
24614;DHT22;12760;46.296;25.290;2023-04-26T11:17:05;11.90;99.90
24614;DHT22;12760;46.296;25.290;2023-04-26T11:19:31;11.90;99.90
24614;DHT22;12760;46.296;25.290;2023-04-26T11:22:01;11.90;99.90
24614;DHT22;12760;46.296;25.290;2023-04-26T11:24:30;11.90;99.90
24614;DHT22;12760;46.296;25.290;2023-04-26T11:26:56;11.90;99.90
24614;DHT22;12760;46.296;25.290;2023-04-26T11:29:23;12.00;99.90
24614;DHT22;12760;46.296;25.290;2023-04-26T11:31:53;12.00;99.90
24614;DHT22;12760;46.296;25.290;2023-04-26T11:34:41;12.10;99.90
24614;DHT22;12760;46.296;25.290;2023-04-26T11:37:06;12.20;99.90
24614;DHT22;12760;46.296;25.290;2023-04-26T11:39:33;12.30;99.90
24614;DHT22;12760;46.296;25.290;2023-04-26T11:42:05;12.10;99.90
24614;DHT22;12760;46.296;25.290;2023-04-26T11:44:31;12.10;99.90
24614;DHT22;12760;46.296;25.290;2023-04-26T11:46:58;12.30;99.90
24614;DHT22;12760;46.296;25.290;2023-04-26T11:49:26;12.40;99.90
24614;DHT22;12760;46.296;25.290;2023-04-26T11:51:52;12.40;99.90
24614;DHT22;12760;46.296;25.290;2023-04-26T11:54:31;12.20;99.90
24614;DHT22;12760;46.296;25.290;2023-04-26T11:56:57;12.30;99.90
24614;DHT22;12760;46.296;25.290;2023-04-26T12:01:50;12.30;99.90
24614;DHT22;12760;46.296;25.290;2023-04-26T12:04:17;12.30;99.90
24614;DHT22;12760;46.296;25.290;2023-04-26T12:06:45;12.20;99.90
24614;DHT22;12760;46.296;25.290;2023-04-26T12:09:11;12.30;99.90
24614;DHT22;12760;46.296;25.290;2023-04-26T12:11:38;12.40;99.90
24614;DHT22;12760;46.296;25.290;2023-04-26T12:14:04;12.40;99.90
24614;DHT22;12760;46.296;25.290;2023-04-26T12:16:30;12.40;99.90
24614;DHT22;12760;46.296;25.290;2023-04-26T12:18:56;12.40;99.90
24614;DHT22;12760;46.296;25.290;2023-04-26T12:21:22;12.40;99.90
24614;DHT22;12760;46.296;25.290;2023-04-26T12:23:49;12.20;99.90
24614;DHT22;12760;46.296;25.290;2023-04-26T12:26:15;12.20;99.90
24614;DHT22;12760;46.296;25.290;2023-04-26T12:28:41;12.20;99.90
24614;DHT22;12760;46.296;25.290;2023-04-26T12:31:07;12.30;99.90
24614;DHT22;12760;46.296;25.290;2023-04-26T12:33:33;12.40;99.90
24614;DHT22;12760;46.296;25.290;2023-04-26T12:36:09;12.40;99.90
24614;DHT22;12760;46.296;25.290;2023-04-26T12:38:36;12.40;99.90
24614;DHT22;12760;46.296;25.290;2023-04-26T12:41:02;12.50;99.90
24614;DHT22;12760;46.296;25.290;2023-04-26T12:43:28;12.50;99.90
24614;DHT22;12760;46.296;25.290;2023-04-26T12:45:53;12.50;99.90
24614;DHT22;12760;46.296;25.290;2023-04-26T12:48:19;12.50;99.90
24614;DHT22;12760;46.296;25.290;2023-04-26T12:50:45;12.60;99.90
24614;DHT22;12760;46.296;25.290;2023-04-26T12:53:11;12.60;99.90
24614;DHT22;12760;46.296;25.290;2023-04-26T12:55:37;12.70;99.90
24614;DHT22;12760;46.296;25.290;2023-04-26T12:58:02;12.80;99.90
24614;DHT22;12760;46.296;25.290;2023-04-26T13:00:28;12.80;99.90
24614;DHT22;12760;46.296;25.290;2023-04-26T13:02:54;12.60;99.90
24614;DHT22;12760;46.296;25.290;2023-04-26T13:05:21;12.40;99.90
24614;DHT22;12760;46.296;25.290;2023-04-26T13:07:49;12.40;99.90
24614;DHT22;12760;46.296;25.290;2023-04-26T13:10:16;12.40;99.90
24614;DHT22;12760;46.296;25.290;2023-04-26T13:12:42;12.30;99.90
24614;DHT22;12760;46.296;25.290;2023-04-26T13:15:08;12.30;99.90
24614;DHT22;12760;46.296;25.290;2023-04-26T13:17:37;12.30;99.90
24614;DHT22;12760;46.296;25.290;2023-04-26T13:20:04;12.20;99.90
24614;DHT22;12760;46.296;25.290;2023-04-26T13:22:31;12.30;99.90
24614;DHT22;12760;46.296;25.290;2023-04-26T13:24:57;12.40;99.90
24614;DHT22;12760;46.296;25.290;2023-04-26T13:27:23;12.40;99.90
24614;DHT22;12760;46.296;25.290;2023-04-26T13:29:49;12.50;99.90
24614;DHT22;12760;46.296;25.290;2023-04-26T13:32:16;12.50;99.90
24614;DHT22;12760;46.296;25.290;2023-04-26T13:34:42;12.40;99.90
24614;DHT22;12760;46.296;25.290;2023-04-26T13:37:11;12.30;99.90
24614;DHT22;12760;46.296;25.290;2023-04-26T13:39:37;12.30;99.90
24614;DHT22;12760;46.296;25.290;2023-04-26T13:42:02;12.20;99.90
24614;DHT22;12760;46.296;25.290;2023-04-26T13:44:30;12.20;99.90
24614;DHT22;12760;46.296;25.290;2023-04-26T13:46:56;12.30;99.90
24614;DHT22;12760;46.296;25.290;2023-04-26T13:49:23;12.30;99.90
24614;DHT22;12760;46.296;25.290;2023-04-26T13:51:51;12.30;99.90
24614;DHT22;12760;46.296;25.290;2023-04-26T13:54:17;12.30;99.90
24614;DHT22;12760;46.296;25.290;2023-04-26T13:56:43;12.30;99.90
24614;DHT22;12760;46.296;25.290;2023-04-26T13:59:08;12.20;99.90
24614;DHT22;12760;46.296;25.290;2023-04-26T14:01:34;12.10;99.90
24614;DHT22;12760;46.296;25.290;2023-04-26T14:04:00;12.20;99.90
24614;DHT22;12760;46.296;25.290;2023-04-26T14:06:26;12.20;99.90
24614;DHT22;12760;46.296;25.290;2023-04-26T14:08:53;12.20;99.90
24614;DHT22;12760;46.296;25.290;2023-04-26T14:11:19;12.10;99.90
24614;DHT22;12760;46.296;25.290;2023-04-26T14:13:44;12.10;99.90
24614;DHT22;12760;46.296;25.290;2023-04-26T14:16:10;12.10;99.90
24614;DHT22;12760;46.296;25.290;2023-04-26T14:18:36;12.10;99.90
24614;DHT22;12760;46.296;25.290;2023-04-26T14:21:12;12.10;99.90
24614;DHT22;12760;46.296;25.290;2023-04-26T14:23:37;12.10;99.90
24614;DHT22;12760;46.296;25.290;2023-04-26T14:26:03;12.20;99.90
24614;DHT22;12760;46.296;25.290;2023-04-26T14:28:29;12.20;99.90
24614;DHT22;12760;46.296;25.290;2023-04-26T14:30:55;12.20;99.90
24614;DHT22;12760;46.296;25.290;2023-04-26T14:33:20;12.20;99.90
24614;DHT22;12760;46.296;25.290;2023-04-26T14:35:46;12.20;99.90
24614;DHT22;12760;46.296;25.290;2023-04-26T14:38:12;12.10;99.90
24614;DHT22;12760;46.296;25.290;2023-04-26T14:40:38;12.20;99.90
24614;DHT22;12760;46.296;25.290;2023-04-26T14:43:04;12.20;99.90
24614;DHT22;12760;46.296;25.290;2023-04-26T14:45:29;12.20;99.90
24614;DHT22;12760;46.296;25.290;2023-04-26T14:48:01;12.20;99.90
24614;DHT22;12760;46.296;25.290;2023-04-26T14:50:27;12.20;99.90
24614;DHT22;12760;46.296;25.290;2023-04-26T14:52:53;12.20;99.90
24614;DHT22;12760;46.296;25.290;2023-04-26T14:55:19;12.20;99.90
24614;DHT22;12760;46.296;25.290;2023-04-26T14:57:48;12.20;99.90
24614;DHT22;12760;46.296;25.290;2023-04-26T15:00:15;12.20;99.90
24614;DHT22;12760;46.296;25.290;2023-04-26T15:02:44;12.20;99.90
24614;DHT22;12760;46.296;25.290;2023-04-26T15:05:11;12.20;99.90
24614;DHT22;12760;46.296;25.290;2023-04-26T15:07:40;12.20;99.90
24614;DHT22;12760;46.296;25.290;2023-04-26T15:10:06;12.20;99.90
24614;DHT22;12760;46.296;25.290;2023-04-26T15:12:35;12.20;99.90
24614;DHT22;12760;46.296;25.290;2023-04-26T15:15:02;12.30;99.90
24614;DHT22;12760;46.296;25.290;2023-04-26T15:17:31;12.30;99.90
24614;DHT22;12760;46.296;25.290;2023-04-26T15:19:57;12.30;99.90
24614;DHT22;12760;46.296;25.290;2023-04-26T15:22:23;12.30;99.90
24614;DHT22;12760;46.296;25.290;2023-04-26T15:24:48;12.20;99.90
24614;DHT22;12760;46.296;25.290;2023-04-26T15:27:15;12.20;99.90
24614;DHT22;12760;46.296;25.290;2023-04-26T15:29:41;12.20;99.90
24614;DHT22;12760;46.296;25.290;2023-04-26T15:32:06;12.20;99.90
24614;DHT22;12760;46.296;25.290;2023-04-26T15:34:40;12.20;99.90
24614;DHT22;12760;46.296;25.290;2023-04-26T15:37:08;12.20;99.90
24614;DHT22;12760;46.296;25.290;2023-04-26T15:39:34;12.10;99.90